Wilmington, North Carolina
Current Conditions -  °F | °C
As of 11:01 PM on Sunday 23 Nov 2014 (Local Time) from KILM Reporting Station
Thunderstorm Thunderstorm  
Wind Chill: 67°   Ceiling: 1100
Heat Index: 67°   Visibility: 0.75mi
Dew Point: 66°   Wind: 21mph
Humidity: 97%   Direction: 150°SSE
Pressure: 29.86"   Gusts: 32mph
Location:  34.24°N, 77.94°W
Report Text: KILM 240401Z 15018G28KT 3/4SM +TSRA BR SCT007 OVC011 19/19 A2986 RMK AO2 PK WND 16028/0359 LTG DSNT E-SW TSB01 P0034 T01940189
Loading
Personal Weather Stations






























Interactive Weather Map New forecast layout! Learn more

10-Day Weather Forecast

Advertisements
Track Severe Weather on mobile